sensor_id;sensor_type;location;lat;lon;timestamp;P1;durP1;ratioP1;P2;durP2;ratioP2
18818;SDS011;9537;45.594;9.294;2022-11-15T00:00:11;21.43;;;13.17;;
18818;SDS011;9537;45.594;9.294;2022-11-15T00:01:14;19.97;;;13.13;;
18818;SDS011;9537;45.594;9.294;2022-11-15T00:02:17;17.50;;;12.23;;
18818;SDS011;9537;45.594;9.294;2022-11-15T00:03:20;14.90;;;11.67;;
18818;SDS011;9537;45.594;9.294;2022-11-15T00:04:23;14.00;;;11.27;;
18818;SDS011;9537;45.594;9.294;2022-11-15T00:05:26;20.43;;;12.73;;
18818;SDS011;9537;45.594;9.294;2022-11-15T00:06:27;18.97;;;13.33;;
18818;SDS011;9537;45.594;9.294;2022-11-15T00:07:29;22.70;;;11.93;;
18818;SDS011;9537;45.594;9.294;2022-11-15T00:08:31;19.97;;;12.60;;
18818;SDS011;9537;45.594;9.294;2022-11-15T00:09:33;20.33;;;13.50;;
18818;SDS011;9537;45.594;9.294;2022-11-15T00:10:34;20.37;;;13.57;;
18818;SDS011;9537;45.594;9.294;2022-11-15T00:11:37;18.67;;;14.00;;
18818;SDS011;9537;45.594;9.294;2022-11-15T00:12:39;21.97;;;15.63;;
18818;SDS011;9537;45.594;9.294;2022-11-15T00:13:40;20.77;;;15.07;;
18818;SDS011;9537;45.594;9.294;2022-11-15T00:14:42;26.97;;;15.53;;
18818;SDS011;9537;45.594;9.294;2022-11-15T00:15:43;19.83;;;14.37;;
18818;SDS011;9537;45.594;9.294;2022-11-15T00:16:45;19.63;;;14.33;;
18818;SDS011;9537;45.594;9.294;2022-11-15T00:17:48;21.60;;;15.27;;
18818;SDS011;9537;45.594;9.294;2022-11-15T00:18:50;20.00;;;14.53;;
18818;SDS011;9537;45.594;9.294;2022-11-15T00:19:51;19.67;;;12.97;;
18818;SDS011;9537;45.594;9.294;2022-11-15T00:20:55;17.70;;;13.07;;
18818;SDS011;9537;45.594;9.294;2022-11-15T00:21:56;19.47;;;13.53;;
18818;SDS011;9537;45.594;9.294;2022-11-15T00:22:58;19.73;;;13.43;;
18818;SDS011;9537;45.594;9.294;2022-11-15T00:23:59;19.97;;;14.23;;
18818;SDS011;9537;45.594;9.294;2022-11-15T00:25:01;22.70;;;14.53;;
18818;SDS011;9537;45.594;9.294;2022-11-15T00:26:02;22.07;;;15.10;;
18818;SDS011;9537;45.594;9.294;2022-11-15T00:27:05;19.27;;;14.73;;
18818;SDS011;9537;45.594;9.294;2022-11-15T00:28:06;23.00;;;15.27;;
18818;SDS011;9537;45.594;9.294;2022-11-15T00:29:08;21.97;;;14.50;;
18818;SDS011;9537;45.594;9.294;2022-11-15T00:30:09;20.30;;;15.00;;
18818;SDS011;9537;45.594;9.294;2022-11-15T00:31:13;20.07;;;14.80;;
18818;SDS011;9537;45.594;9.294;2022-11-15T00:32:14;19.70;;;13.93;;
18818;SDS011;9537;45.594;9.294;2022-11-15T00:33:17;19.40;;;14.37;;
18818;SDS011;9537;45.594;9.294;2022-11-15T00:34:18;18.43;;;13.30;;
18818;SDS011;9537;45.594;9.294;2022-11-15T00:35:21;18.10;;;13.80;;
18818;SDS011;9537;45.594;9.294;2022-11-15T00:36:23;17.87;;;13.00;;
18818;SDS011;9537;45.594;9.294;2022-11-15T00:37:25;19.13;;;14.70;;
18818;SDS011;9537;45.594;9.294;2022-11-15T00:38:30;20.60;;;15.77;;
18818;SDS011;9537;45.594;9.294;2022-11-15T00:39:32;18.93;;;14.07;;
18818;SDS011;9537;45.594;9.294;2022-11-15T00:40:33;17.30;;;13.50;;
18818;SDS011;9537;45.594;9.294;2022-11-15T00:41:35;17.27;;;13.40;;
18818;SDS011;9537;45.594;9.294;2022-11-15T00:42:36;17.53;;;13.20;;
18818;SDS011;9537;45.594;9.294;2022-11-15T00:43:38;17.10;;;12.90;;
18818;SDS011;9537;45.594;9.294;2022-11-15T00:44:40;15.93;;;13.10;;
18818;SDS011;9537;45.594;9.294;2022-11-15T00:45:42;18.47;;;12.70;;
18818;SDS011;9537;45.594;9.294;2022-11-15T00:46:43;17.97;;;13.10;;
18818;SDS011;9537;45.594;9.294;2022-11-15T00:47:46;15.40;;;12.80;;
18818;SDS011;9537;45.594;9.294;2022-11-15T00:48:47;16.97;;;13.53;;
18818;SDS011;9537;45.594;9.294;2022-11-15T00:49:49;17.03;;;12.47;;
18818;SDS011;9537;45.594;9.294;2022-11-15T00:50:49;18.83;;;13.20;;
18818;SDS011;9537;45.594;9.294;2022-11-15T00:51:53;20.93;;;13.40;;
18818;SDS011;9537;45.594;9.294;2022-11-15T00:52:54;19.27;;;13.00;;
18818;SDS011;9537;45.594;9.294;2022-11-15T00:53:56;17.10;;;14.03;;
18818;SDS011;9537;45.594;9.294;2022-11-15T00:54:57;18.93;;;12.67;;
18818;SDS011;9537;45.594;9.294;2022-11-15T00:55:59;18.93;;;13.53;;
18818;SDS011;9537;45.594;9.294;2022-11-15T00:57:00;19.20;;;13.90;;
18818;SDS011;9537;45.594;9.294;2022-11-15T00:58:02;18.67;;;13.67;;
18818;SDS011;9537;45.594;9.294;2022-11-15T00:59:03;18.93;;;13.80;;
18818;SDS011;9537;45.594;9.294;2022-11-15T01:00:06;15.83;;;12.57;;
18818;SDS011;9537;45.594;9.294;2022-11-15T01:01:08;17.07;;;12.27;;
18818;SDS011;9537;45.594;9.294;2022-11-15T01:02:11;17.63;;;13.23;;
18818;SDS011;9537;45.594;9.294;2022-11-15T01:03:12;19.33;;;13.83;;
18818;SDS011;9537;45.594;9.294;2022-11-15T01:04:14;18.40;;;13.50;;
18818;SDS011;9537;45.594;9.294;2022-11-15T01:05:15;22.73;;;14.93;;
18818;SDS011;9537;45.594;9.294;2022-11-15T01:06:17;21.33;;;14.07;;
18818;SDS011;9537;45.594;9.294;2022-11-15T01:07:20;17.67;;;13.83;;
18818;SDS011;9537;45.594;9.294;2022-11-15T01:08:22;19.27;;;13.40;;
18818;SDS011;9537;45.594;9.294;2022-11-15T01:09:23;18.13;;;14.17;;
18818;SDS011;9537;45.594;9.294;2022-11-15T01:10:25;18.87;;;14.27;;
18818;SDS011;9537;45.594;9.294;2022-11-15T01:11:26;18.10;;;13.33;;
18818;SDS011;9537;45.594;9.294;2022-11-15T01:12:28;24.03;;;14.83;;
18818;SDS011;9537;45.594;9.294;2022-11-15T01:13:30;20.27;;;14.23;;
18818;SDS011;9537;45.594;9.294;2022-11-15T01:14:33;22.60;;;14.53;;
18818;SDS011;9537;45.594;9.294;2022-11-15T01:15:34;19.13;;;13.60;;
18818;SDS011;9537;45.594;9.294;2022-11-15T01:16:41;18.03;;;14.00;;
18818;SDS011;9537;45.594;9.294;2022-11-15T01:17:42;18.90;;;13.77;;
18818;SDS011;9537;45.594;9.294;2022-11-15T01:18:44;19.53;;;13.73;;
18818;SDS011;9537;45.594;9.294;2022-11-15T01:19:45;21.00;;;14.73;;
18818;SDS011;9537;45.594;9.294;2022-11-15T01:20:48;21.67;;;14.30;;
18818;SDS011;9537;45.594;9.294;2022-11-15T01:21:49;23.00;;;14.63;;
18818;SDS011;9537;45.594;9.294;2022-11-15T01:22:52;19.00;;;14.00;;
18818;SDS011;9537;45.594;9.294;2022-11-15T01:23:53;19.67;;;14.93;;
18818;SDS011;9537;45.594;9.294;2022-11-15T01:24:56;20.57;;;14.57;;
18818;SDS011;9537;45.594;9.294;2022-11-15T01:25:58;19.73;;;13.53;;
18818;SDS011;9537;45.594;9.294;2022-11-15T01:27:00;19.90;;;14.63;;
18818;SDS011;9537;45.594;9.294;2022-11-15T01:28:02;21.50;;;14.63;;
18818;SDS011;9537;45.594;9.294;2022-11-15T01:29:03;19.80;;;14.37;;
18818;SDS011;9537;45.594;9.294;2022-11-15T01:30:06;21.23;;;14.17;;
18818;SDS011;9537;45.594;9.294;2022-11-15T01:31:09;19.93;;;13.93;;
18818;SDS011;9537;45.594;9.294;2022-11-15T01:32:14;17.93;;;13.67;;
18818;SDS011;9537;45.594;9.294;2022-11-15T01:33:15;21.47;;;15.23;;
18818;SDS011;9537;45.594;9.294;2022-11-15T01:34:17;21.63;;;14.80;;
18818;SDS011;9537;45.594;9.294;2022-11-15T01:35:18;20.00;;;14.93;;
18818;SDS011;9537;45.594;9.294;2022-11-15T01:36:21;19.17;;;14.23;;
18818;SDS011;9537;45.594;9.294;2022-11-15T01:37:22;20.97;;;14.87;;
18818;SDS011;9537;45.594;9.294;2022-11-15T01:38:25;17.27;;;13.70;;
18818;SDS011;9537;45.594;9.294;2022-11-15T01:39:26;19.23;;;13.70;;
18818;SDS011;9537;45.594;9.294;2022-11-15T01:40:28;20.07;;;15.47;;
18818;SDS011;9537;45.594;9.294;2022-11-15T01:41:30;20.80;;;14.83;;
18818;SDS011;9537;45.594;9.294;2022-11-15T01:42:35;19.73;;;14.53;;
18818;SDS011;9537;45.594;9.294;2022-11-15T01:43:36;21.33;;;15.60;;
18818;SDS011;9537;45.594;9.294;2022-11-15T01:44:40;19.40;;;14.63;;
18818;SDS011;9537;45.594;9.294;2022-11-15T01:45:48;19.20;;;14.90;;
18818;SDS011;9537;45.594;9.294;2022-11-15T01:46:54;19.10;;;14.13;;
18818;SDS011;9537;45.594;9.294;2022-11-15T01:47:56;19.43;;;14.73;;
18818;SDS011;9537;45.594;9.294;2022-11-15T01:48:59;22.37;;;14.63;;
18818;SDS011;9537;45.594;9.294;2022-11-15T01:50:04;19.40;;;14.73;;
18818;SDS011;9537;45.594;9.294;2022-11-15T01:51:11;19.70;;;14.37;;
18818;SDS011;9537;45.594;9.294;2022-11-15T01:52:17;21.80;;;14.80;;
18818;SDS011;9537;45.594;9.294;2022-11-15T01:53:21;17.13;;;13.73;;
18818;SDS011;9537;45.594;9.294;2022-11-15T01:54:26;16.20;;;13.10;;
18818;SDS011;9537;45.594;9.294;2022-11-15T01:55:29;18.10;;;13.37;;
18818;SDS011;9537;45.594;9.294;2022-11-15T01:56:30;18.80;;;13.73;;
18818;SDS011;9537;45.594;9.294;2022-11-15T01:57:35;18.47;;;13.60;;
18818;SDS011;9537;45.594;9.294;2022-11-15T01:58:36;19.03;;;13.57;;
18818;SDS011;9537;45.594;9.294;2022-11-15T01:59:40;16.33;;;13.17;;
18818;SDS011;9537;45.594;9.294;2022-11-15T02:00:45;18.03;;;12.97;;
18818;SDS011;9537;45.594;9.294;2022-11-15T02:01:48;17.40;;;13.63;;
18818;SDS011;9537;45.594;9.294;2022-11-15T02:02:50;15.70;;;12.93;;
18818;SDS011;9537;45.594;9.294;2022-11-15T02:03:54;16.70;;;13.90;;
18818;SDS011;9537;45.594;9.294;2022-11-15T02:04:59;15.00;;;12.97;;
18818;SDS011;9537;45.594;9.294;2022-11-15T02:06:01;19.13;;;14.43;;
18818;SDS011;9537;45.594;9.294;2022-11-15T02:07:05;22.83;;;14.47;;
18818;SDS011;9537;45.594;9.294;2022-11-15T02:08:10;17.67;;;13.50;;
18818;SDS011;9537;45.594;9.294;2022-11-15T02:09:20;18.10;;;14.10;;
18818;SDS011;9537;45.594;9.294;2022-11-15T02:10:24;19.10;;;14.13;;
18818;SDS011;9537;45.594;9.294;2022-11-15T02:11:25;18.57;;;14.50;;
18818;SDS011;9537;45.594;9.294;2022-11-15T02:12:27;18.60;;;13.87;;
18818;SDS011;9537;45.594;9.294;2022-11-15T02:13:28;17.87;;;13.47;;
18818;SDS011;9537;45.594;9.294;2022-11-15T02:14:31;21.37;;;13.87;;
18818;SDS011;9537;45.594;9.294;2022-11-15T02:15:34;18.47;;;13.13;;
18818;SDS011;9537;45.594;9.294;2022-11-15T02:16:43;20.60;;;14.20;;
18818;SDS011;9537;45.594;9.294;2022-11-15T02:17:56;20.50;;;13.07;;
18818;SDS011;9537;45.594;9.294;2022-11-15T02:19:13;21.27;;;14.00;;
18818;SDS011;9537;45.594;9.294;2022-11-15T02:20:36;21.13;;;14.47;;
18818;SDS011;9537;45.594;9.294;2022-11-15T02:21:57;21.43;;;14.07;;
18818;SDS011;9537;45.594;9.294;2022-11-15T02:23:13;20.00;;;14.67;;
18818;SDS011;9537;45.594;9.294;2022-11-15T02:24:42;21.07;;;14.03;;
18818;SDS011;9537;45.594;9.294;2022-11-15T02:25:57;18.43;;;13.97;;
18818;SDS011;9537;45.594;9.294;2022-11-15T02:28:50;17.10;;;13.10;;
18818;SDS011;9537;45.594;9.294;2022-11-15T02:30:02;17.97;;;13.40;;
18818;SDS011;9537;45.594;9.294;2022-11-15T02:31:14;23.70;;;14.20;;
18818;SDS011;9537;45.594;9.294;2022-11-15T02:32:24;19.27;;;13.13;;
18818;SDS011;9537;45.594;9.294;2022-11-15T02:33:35;18.07;;;12.47;;
18818;SDS011;9537;45.594;9.294;2022-11-15T02:34:43;17.90;;;13.10;;
18818;SDS011;9537;45.594;9.294;2022-11-15T02:35:54;19.47;;;13.27;;
18818;SDS011;9537;45.594;9.294;2022-11-15T02:37:01;20.10;;;14.20;;
18818;SDS011;9537;45.594;9.294;2022-11-15T02:38:11;20.40;;;14.53;;
18818;SDS011;9537;45.594;9.294;2022-11-15T02:39:19;20.27;;;13.93;;
18818;SDS011;9537;45.594;9.294;2022-11-15T02:40:32;19.83;;;14.27;;
18818;SDS011;9537;45.594;9.294;2022-11-15T02:41:40;19.00;;;14.43;;
18818;SDS011;9537;45.594;9.294;2022-11-15T02:42:48;17.17;;;14.23;;
18818;SDS011;9537;45.594;9.294;2022-11-15T02:44:12;19.83;;;13.60;;
18818;SDS011;9537;45.594;9.294;2022-11-15T02:45:21;18.57;;;13.77;;
18818;SDS011;9537;45.594;9.294;2022-11-15T02:46:27;18.30;;;13.27;;
18818;SDS011;9537;45.594;9.294;2022-11-15T02:47:51;18.53;;;13.20;;
18818;SDS011;9537;45.594;9.294;2022-11-15T02:48:57;17.67;;;13.67;;
18818;SDS011;9537;45.594;9.294;2022-11-15T02:49:59;19.97;;;13.87;;
18818;SDS011;9537;45.594;9.294;2022-11-15T02:51:04;15.77;;;12.73;;
18818;SDS011;9537;45.594;9.294;2022-11-15T02:52:06;23.10;;;15.60;;
18818;SDS011;9537;45.594;9.294;2022-11-15T02:53:08;19.40;;;14.40;;
18818;SDS011;9537;45.594;9.294;2022-11-15T02:54:11;21.03;;;14.90;;
18818;SDS011;9537;45.594;9.294;2022-11-15T02:55:24;22.10;;;14.00;;
18818;SDS011;9537;45.594;9.294;2022-11-15T02:56:27;17.47;;;13.90;;
18818;SDS011;9537;45.594;9.294;2022-11-15T02:57:33;23.40;;;14.47;;
18818;SDS011;9537;45.594;9.294;2022-11-15T02:58:55;19.27;;;15.07;;
18818;SDS011;9537;45.594;9.294;2022-11-15T03:00:08;16.67;;;13.93;;
18818;SDS011;9537;45.594;9.294;2022-11-15T03:01:15;19.07;;;14.27;;
18818;SDS011;9537;45.594;9.294;2022-11-15T03:02:31;22.03;;;14.37;;
18818;SDS011;9537;45.594;9.294;2022-11-15T03:03:44;22.37;;;14.30;;
18818;SDS011;9537;45.594;9.294;2022-11-15T03:05:01;19.90;;;14.03;;
18818;SDS011;9537;45.594;9.294;2022-11-15T03:06:09;22.87;;;14.73;;
18818;SDS011;9537;45.594;9.294;2022-11-15T03:07:24;19.77;;;13.43;;
18818;SDS011;9537;45.594;9.294;2022-11-15T03:08:31;21.23;;;14.60;;
18818;SDS011;9537;45.594;9.294;2022-11-15T03:09:35;20.80;;;14.17;;
18818;SDS011;9537;45.594;9.294;2022-11-15T03:10:46;18.73;;;13.43;;
18818;SDS011;9537;45.594;9.294;2022-11-15T03:11:56;21.07;;;14.03;;
18818;SDS011;9537;45.594;9.294;2022-11-15T03:13:07;18.80;;;14.07;;
18818;SDS011;9537;45.594;9.294;2022-11-15T03:14:19;19.70;;;13.83;;
18818;SDS011;9537;45.594;9.294;2022-11-15T03:15:26;18.63;;;14.00;;
18818;SDS011;9537;45.594;9.294;2022-11-15T03:16:36;16.80;;;13.57;;
18818;SDS011;9537;45.594;9.294;2022-11-15T03:17:39;21.93;;;13.57;;
18818;SDS011;9537;45.594;9.294;2022-11-15T03:18:46;17.63;;;13.50;;
18818;SDS011;9537;45.594;9.294;2022-11-15T03:19:52;18.37;;;13.47;;
18818;SDS011;9537;45.594;9.294;2022-11-15T03:20:57;22.37;;;14.50;;
18818;SDS011;9537;45.594;9.294;2022-11-15T03:22:02;18.20;;;14.43;;
18818;SDS011;9537;45.594;9.294;2022-11-15T03:23:08;19.13;;;14.70;;
18818;SDS011;9537;45.594;9.294;2022-11-15T03:24:11;21.30;;;14.30;;
18818;SDS011;9537;45.594;9.294;2022-11-15T03:25:18;18.07;;;14.30;;
18818;SDS011;9537;45.594;9.294;2022-11-15T03:26:21;19.33;;;14.53;;
18818;SDS011;9537;45.594;9.294;2022-11-15T03:27:27;20.30;;;14.20;;
18818;SDS011;9537;45.594;9.294;2022-11-15T03:28:32;19.80;;;13.67;;
18818;SDS011;9537;45.594;9.294;2022-11-15T03:29:38;22.93;;;13.80;;
18818;SDS011;9537;45.594;9.294;2022-11-15T03:30:41;20.67;;;13.83;;
18818;SDS011;9537;45.594;9.294;2022-11-15T03:31:48;18.13;;;13.10;;
18818;SDS011;9537;45.594;9.294;2022-11-15T03:32:54;17.40;;;13.03;;
18818;SDS011;9537;45.594;9.294;2022-11-15T03:33:59;18.63;;;12.87;;
18818;SDS011;9537;45.594;9.294;2022-11-15T03:35:03;19.20;;;14.13;;
18818;SDS011;9537;45.594;9.294;2022-11-15T03:36:08;19.53;;;13.43;;
18818;SDS011;9537;45.594;9.294;2022-11-15T03:37:09;20.93;;;13.77;;
18818;SDS011;9537;45.594;9.294;2022-11-15T03:38:15;21.07;;;14.03;;
18818;SDS011;9537;45.594;9.294;2022-11-15T03:39:20;21.83;;;14.37;;
18818;SDS011;9537;45.594;9.294;2022-11-15T03:40:24;16.80;;;13.43;;
18818;SDS011;9537;45.594;9.294;2022-11-15T03:41:29;15.93;;;12.63;;
18818;SDS011;9537;45.594;9.294;2022-11-15T03:42:39;21.63;;;14.30;;
18818;SDS011;9537;45.594;9.294;2022-11-15T03:43:47;19.10;;;13.63;;
18818;SDS011;9537;45.594;9.294;2022-11-15T03:44:56;19.23;;;12.73;;
18818;SDS011;9537;45.594;9.294;2022-11-15T03:46:04;21.00;;;13.10;;
18818;SDS011;9537;45.594;9.294;2022-11-15T03:47:13;20.30;;;13.83;;
18818;SDS011;9537;45.594;9.294;2022-11-15T03:48:20;18.17;;;12.97;;
18818;SDS011;9537;45.594;9.294;2022-11-15T03:49:25;16.07;;;12.30;;
18818;SDS011;9537;45.594;9.294;2022-11-15T03:50:31;18.47;;;13.33;;
18818;SDS011;9537;45.594;9.294;2022-11-15T03:51:32;17.17;;;13.00;;
18818;SDS011;9537;45.594;9.294;2022-11-15T03:52:34;18.67;;;12.73;;
18818;SDS011;9537;45.594;9.294;2022-11-15T03:53:36;18.47;;;13.10;;
18818;SDS011;9537;45.594;9.294;2022-11-15T03:54:47;19.47;;;13.67;;
18818;SDS011;9537;45.594;9.294;2022-11-15T03:55:48;17.83;;;13.23;;
18818;SDS011;9537;45.594;9.294;2022-11-15T03:56:50;18.70;;;13.17;;
18818;SDS011;9537;45.594;9.294;2022-11-15T03:57:52;17.40;;;12.83;;
18818;SDS011;9537;45.594;9.294;2022-11-15T03:58:56;17.63;;;12.50;;
18818;SDS011;9537;45.594;9.294;2022-11-15T03:59:57;17.57;;;12.77;;
18818;SDS011;9537;45.594;9.294;2022-11-15T04:00:59;17.57;;;13.50;;
18818;SDS011;9537;45.594;9.294;2022-11-15T04:02:00;22.30;;;13.87;;
18818;SDS011;9537;45.594;9.294;2022-11-15T04:03:05;16.33;;;12.63;;
18818;SDS011;9537;45.594;9.294;2022-11-15T04:04:08;17.43;;;12.83;;
18818;SDS011;9537;45.594;9.294;2022-11-15T04:05:10;16.67;;;12.93;;
18818;SDS011;9537;45.594;9.294;2022-11-15T04:06:11;17.33;;;13.60;;
18818;SDS011;9537;45.594;9.294;2022-11-15T04:07:13;17.10;;;13.07;;
18818;SDS011;9537;45.594;9.294;2022-11-15T04:08:15;18.37;;;13.90;;
18818;SDS011;9537;45.594;9.294;2022-11-15T04:09:15;19.90;;;13.23;;
18818;SDS011;9537;45.594;9.294;2022-11-15T04:10:17;17.00;;;13.57;;
18818;SDS011;9537;45.594;9.294;2022-11-15T04:11:19;18.37;;;12.30;;
18818;SDS011;9537;45.594;9.294;2022-11-15T04:12:21;18.03;;;13.40;;
18818;SDS011;9537;45.594;9.294;2022-11-15T04:13:30;15.33;;;11.90;;
18818;SDS011;9537;45.594;9.294;2022-11-15T04:14:32;16.83;;;12.37;;
18818;SDS011;9537;45.594;9.294;2022-11-15T04:15:33;19.87;;;13.80;;
18818;SDS011;9537;45.594;9.294;2022-11-15T04:16:35;19.50;;;13.03;;
18818;SDS011;9537;45.594;9.294;2022-11-15T04:17:37;17.60;;;12.90;;
18818;SDS011;9537;45.594;9.294;2022-11-15T04:18:42;21.43;;;13.30;;
18818;SDS011;9537;45.594;9.294;2022-11-15T04:19:43;19.43;;;12.10;;
18818;SDS011;9537;45.594;9.294;2022-11-15T04:21:02;18.50;;;12.67;;
18818;SDS011;9537;45.594;9.294;2022-11-15T04:22:22;18.63;;;13.00;;
18818;SDS011;9537;45.594;9.294;2022-11-15T04:23:41;18.40;;;13.37;;
18818;SDS011;9537;45.594;9.294;2022-11-15T04:25:00;16.50;;;12.03;;
18818;SDS011;9537;45.594;9.294;2022-11-15T04:26:03;17.10;;;12.33;;
18818;SDS011;9537;45.594;9.294;2022-11-15T04:27:05;22.17;;;12.57;;
18818;SDS011;9537;45.594;9.294;2022-11-15T04:28:07;18.57;;;13.70;;
18818;SDS011;9537;45.594;9.294;2022-11-15T04:29:08;17.33;;;13.63;;
18818;SDS011;9537;45.594;9.294;2022-11-15T04:30:42;17.33;;;12.77;;
18818;SDS011;9537;45.594;9.294;2022-11-15T04:31:45;16.07;;;12.77;;
18818;SDS011;9537;45.594;9.294;2022-11-15T04:32:46;17.60;;;12.43;;
18818;SDS011;9537;45.594;9.294;2022-11-15T04:33:50;15.83;;;11.73;;
18818;SDS011;9537;45.594;9.294;2022-11-15T04:34:51;16.57;;;12.83;;
18818;SDS011;9537;45.594;9.294;2022-11-15T04:35:53;18.37;;;13.33;;
18818;SDS011;9537;45.594;9.294;2022-11-15T04:37:13;17.37;;;12.93;;
18818;SDS011;9537;45.594;9.294;2022-11-15T04:38:16;15.50;;;12.37;;
18818;SDS011;9537;45.594;9.294;2022-11-15T04:39:17;17.57;;;12.70;;
18818;SDS011;9537;45.594;9.294;2022-11-15T04:40:19;18.03;;;13.33;;
18818;SDS011;9537;45.594;9.294;2022-11-15T04:41:20;18.80;;;12.70;;
18818;SDS011;9537;45.594;9.294;2022-11-15T04:42:22;17.73;;;13.10;;
18818;SDS011;9537;45.594;9.294;2022-11-15T04:43:23;17.87;;;12.57;;
18818;SDS011;9537;45.594;9.294;2022-11-15T04:44:25;19.40;;;13.37;;
18818;SDS011;9537;45.594;9.294;2022-11-15T04:45:26;15.57;;;12.63;;
18818;SDS011;9537;45.594;9.294;2022-11-15T04:46:28;19.43;;;13.23;;
18818;SDS011;9537;45.594;9.294;2022-11-15T04:47:29;18.40;;;13.03;;
18818;SDS011;9537;45.594;9.294;2022-11-15T04:48:31;16.53;;;12.47;;
18818;SDS011;9537;45.594;9.294;2022-11-15T04:49:33;18.30;;;13.10;;
18818;SDS011;9537;45.594;9.294;2022-11-15T04:50:35;15.90;;;12.40;;
18818;SDS011;9537;45.594;9.294;2022-11-15T04:51:36;21.10;;;12.83;;
18818;SDS011;9537;45.594;9.294;2022-11-15T04:52:39;18.40;;;12.30;;
18818;SDS011;9537;45.594;9.294;2022-11-15T04:53:40;16.90;;;12.67;;
18818;SDS011;9537;45.594;9.294;2022-11-15T04:54:42;17.83;;;13.40;;
18818;SDS011;9537;45.594;9.294;2022-11-15T04:55:44;14.33;;;11.50;;
18818;SDS011;9537;45.594;9.294;2022-11-15T04:56:46;18.10;;;12.27;;
18818;SDS011;9537;45.594;9.294;2022-11-15T04:57:47;17.63;;;12.80;;
18818;SDS011;9537;45.594;9.294;2022-11-15T04:58:49;16.17;;;12.07;;
18818;SDS011;9537;45.594;9.294;2022-11-15T04:59:50;16.67;;;11.97;;
18818;SDS011;9537;45.594;9.294;2022-11-15T05:00:52;16.47;;;12.30;;
18818;SDS011;9537;45.594;9.294;2022-11-15T05:01:53;18.50;;;12.77;;
18818;SDS011;9537;45.594;9.294;2022-11-15T05:02:55;14.83;;;11.53;;
18818;SDS011;9537;45.594;9.294;2022-11-15T05:04:15;18.77;;;12.20;;
18818;SDS011;9537;45.594;9.294;2022-11-15T05:05:20;17.33;;;11.27;;
18818;SDS011;9537;45.594;9.294;2022-11-15T05:06:21;14.77;;;12.00;;
18818;SDS011;9537;45.594;9.294;2022-11-15T05:07:23;18.63;;;12.50;;
18818;SDS011;9537;45.594;9.294;2022-11-15T05:08:24;15.97;;;11.87;;
18818;SDS011;9537;45.594;9.294;2022-11-15T05:09:26;16.73;;;12.40;;
18818;SDS011;9537;45.594;9.294;2022-11-15T05:10:27;17.00;;;12.53;;
18818;SDS011;9537;45.594;9.294;2022-11-15T05:11:29;16.83;;;12.50;;
18818;SDS011;9537;45.594;9.294;2022-11-15T05:12:30;16.97;;;11.30;;
18818;SDS011;9537;45.594;9.294;2022-11-15T05:13:32;20.33;;;12.90;;
18818;SDS011;9537;45.594;9.294;2022-11-15T05:14:33;16.67;;;12.67;;
18818;SDS011;9537;45.594;9.294;2022-11-15T05:15:35;16.37;;;12.47;;
18818;SDS011;9537;45.594;9.294;2022-11-15T05:16:36;18.73;;;12.80;;
18818;SDS011;9537;45.594;9.294;2022-11-15T05:17:39;16.00;;;11.90;;
18818;SDS011;9537;45.594;9.294;2022-11-15T05:18:40;18.13;;;12.63;;
18818;SDS011;9537;45.594;9.294;2022-11-15T05:19:41;18.10;;;12.07;;
18818;SDS011;9537;45.594;9.294;2022-11-15T05:20:46;18.07;;;11.90;;
18818;SDS011;9537;45.594;9.294;2022-11-15T05:21:47;17.27;;;12.03;;
18818;SDS011;9537;45.594;9.294;2022-11-15T05:22:49;15.63;;;11.60;;
18818;SDS011;9537;45.594;9.294;2022-11-15T05:23:49;16.37;;;12.13;;
18818;SDS011;9537;45.594;9.294;2022-11-15T05:24:52;14.13;;;11.50;;
18818;SDS011;9537;45.594;9.294;2022-11-15T05:25:53;15.80;;;11.43;;
18818;SDS011;9537;45.594;9.294;2022-11-15T05:26:55;17.97;;;12.33;;
18818;SDS011;9537;45.594;9.294;2022-11-15T05:27:56;16.17;;;11.47;;
18818;SDS011;9537;45.594;9.294;2022-11-15T05:28:58;16.17;;;11.60;;
18818;SDS011;9537;45.594;9.294;2022-11-15T05:29:59;14.03;;;11.57;;
18818;SDS011;9537;45.594;9.294;2022-11-15T05:31:02;16.13;;;11.73;;
18818;SDS011;9537;45.594;9.294;2022-11-15T05:32:04;18.43;;;11.93;;
18818;SDS011;9537;45.594;9.294;2022-11-15T05:33:07;17.60;;;11.50;;
18818;SDS011;9537;45.594;9.294;2022-11-15T05:34:08;15.87;;;11.93;;
18818;SDS011;9537;45.594;9.294;2022-11-15T05:35:12;15.53;;;11.77;;
18818;SDS011;9537;45.594;9.294;2022-11-15T05:36:21;19.13;;;12.07;;
18818;SDS011;9537;45.594;9.294;2022-11-15T05:37:30;19.07;;;12.83;;
18818;SDS011;9537;45.594;9.294;2022-11-15T05:38:41;15.03;;;11.13;;
18818;SDS011;9537;45.594;9.294;2022-11-15T05:39:42;15.67;;;11.67;;
18818;SDS011;9537;45.594;9.294;2022-11-15T05:40:44;17.27;;;12.23;;
18818;SDS011;9537;45.594;9.294;2022-11-15T05:41:46;19.77;;;12.90;;
18818;SDS011;9537;45.594;9.294;2022-11-15T05:42:52;14.50;;;11.13;;
18818;SDS011;9537;45.594;9.294;2022-11-15T05:43:54;19.47;;;12.73;;
18818;SDS011;9537;45.594;9.294;2022-11-15T05:44:56;13.80;;;11.37;;
18818;SDS011;9537;45.594;9.294;2022-11-15T05:45:59;15.27;;;11.73;;
18818;SDS011;9537;45.594;9.294;2022-11-15T05:47:02;16.23;;;11.93;;
18818;SDS011;9537;45.594;9.294;2022-11-15T05:48:06;15.93;;;12.57;;
18818;SDS011;9537;45.594;9.294;2022-11-15T05:49:11;13.57;;;11.57;;
18818;SDS011;9537;45.594;9.294;2022-11-15T05:50:15;18.67;;;11.70;;
18818;SDS011;9537;45.594;9.294;2022-11-15T05:51:19;18.27;;;12.90;;
18818;SDS011;9537;45.594;9.294;2022-11-15T05:52:24;17.60;;;11.27;;
18818;SDS011;9537;45.594;9.294;2022-11-15T05:53:31;15.73;;;11.13;;
18818;SDS011;9537;45.594;9.294;2022-11-15T05:54:33;17.53;;;12.30;;
18818;SDS011;9537;45.594;9.294;2022-11-15T05:55:36;15.63;;;11.83;;
18818;SDS011;9537;45.594;9.294;2022-11-15T05:56:39;14.77;;;11.60;;
18818;SDS011;9537;45.594;9.294;2022-11-15T05:57:41;15.40;;;11.50;;
18818;SDS011;9537;45.594;9.294;2022-11-15T05:58:42;15.17;;;11.70;;
18818;SDS011;9537;45.594;9.294;2022-11-15T05:59:44;15.63;;;11.47;;
18818;SDS011;9537;45.594;9.294;2022-11-15T06:00:45;16.33;;;12.17;;
18818;SDS011;9537;45.594;9.294;2022-11-15T06:01:48;15.40;;;11.57;;
18818;SDS011;9537;45.594;9.294;2022-11-15T06:02:49;16.20;;;11.93;;
18818;SDS011;9537;45.594;9.294;2022-11-15T06:03:51;16.93;;;11.47;;
18818;SDS011;9537;45.594;9.294;2022-11-15T06:04:52;16.90;;;12.53;;
18818;SDS011;9537;45.594;9.294;2022-11-15T06:05:54;17.30;;;11.90;;
18818;SDS011;9537;45.594;9.294;2022-11-15T06:06:56;17.97;;;12.00;;
18818;SDS011;9537;45.594;9.294;2022-11-15T06:07:59;16.97;;;11.43;;
18818;SDS011;9537;45.594;9.294;2022-11-15T06:09:00;15.63;;;11.07;;
18818;SDS011;9537;45.594;9.294;2022-11-15T06:10:02;15.57;;;11.23;;
18818;SDS011;9537;45.594;9.294;2022-11-15T06:11:04;16.53;;;11.47;;
18818;SDS011;9537;45.594;9.294;2022-11-15T06:12:06;15.33;;;11.80;;
18818;SDS011;9537;45.594;9.294;2022-11-15T06:13:07;14.97;;;10.90;;
18818;SDS011;9537;45.594;9.294;2022-11-15T06:14:09;15.67;;;11.37;;
18818;SDS011;9537;45.594;9.294;2022-11-15T06:15:10;15.80;;;11.63;;
18818;SDS011;9537;45.594;9.294;2022-11-15T06:16:12;15.77;;;12.00;;
18818;SDS011;9537;45.594;9.294;2022-11-15T06:17:13;15.67;;;11.47;;
18818;SDS011;9537;45.594;9.294;2022-11-15T06:18:15;18.23;;;11.30;;
18818;SDS011;9537;45.594;9.294;2022-11-15T06:19:16;14.80;;;11.00;;
18818;SDS011;9537;45.594;9.294;2022-11-15T06:20:18;14.93;;;11.90;;
18818;SDS011;9537;45.594;9.294;2022-11-15T06:21:19;17.17;;;11.10;;
18818;SDS011;9537;45.594;9.294;2022-11-15T06:22:23;15.23;;;11.27;;